createdAt,value
2017-02-24T00:00:45.055Z,96.22
2017-02-24T00:01:54.476Z,97.08
2017-02-24T00:03:03.466Z,96.5
2017-02-24T00:04:13.436Z,95.27
2017-02-24T00:05:22.411Z,95.51
2017-02-24T00:06:32.401Z,95.36
2017-02-24T00:07:41.437Z,97.55
2017-02-24T00:08:51.006Z,97.13
2017-02-24T00:09:59.985Z,97.83
2017-02-24T00:11:09.861Z,97.6
2017-02-24T00:12:19.725Z,96.31
2017-02-24T00:13:28.760Z,95.56
2017-02-24T00:14:39.464Z,95.84
2017-02-24T00:15:49.721Z,96.03
2017-02-24T00:16:58.707Z,95.46
2017-02-24T00:18:08.356Z,94.6
2017-02-24T00:19:17.332Z,96.31
2017-02-24T00:20:26.963Z,95.84
2017-02-24T00:21:36.043Z,96.08
2017-02-24T00:22:46.046Z,96.03
2017-02-24T00:23:55.029Z,95.98
2017-02-24T00:25:04.673Z,96.08
2017-02-24T00:26:13.821Z,94.84
2017-02-24T00:27:23.491Z,96.17
2017-02-24T00:28:32.467Z,95.98
2017-02-24T00:29:42.689Z,94.37
2017-02-24T00:30:51.684Z,93.27
2017-02-24T00:32:01.359Z,95.79
2017-02-24T00:33:10.337Z,96.94
2017-02-24T00:34:20.172Z,95.79
2017-02-24T00:35:29.254Z,95.79
2017-02-24T00:36:38.820Z,97.5
2017-02-24T00:37:48.305Z,97.5
2017-02-24T00:38:57.550Z,97.03
2017-02-24T00:40:06.550Z,94.84
2017-02-24T00:41:16.443Z,96.08
2017-02-24T00:42:25.425Z,96.36
2017-02-24T00:43:35.436Z,96.08
2017-02-24T00:44:44.416Z,95.32
2017-02-24T00:45:54.179Z,92.56
2017-02-24T00:47:03.166Z,93.89
2017-02-24T00:48:12.774Z,93.32
2017-02-24T00:49:21.764Z,94.37
2017-02-24T00:50:31.626Z,95.32
2017-02-24T00:51:40.616Z,92.94
2017-02-24T00:52:50.269Z,91.32
2017-02-24T00:53:59.256Z,89.94
2017-02-24T00:55:09.101Z,89
2017-02-24T00:56:18.163Z,89.47
2017-02-24T00:57:27.809Z,88.33
2017-02-24T00:58:36.901Z,89.09
2017-02-24T00:59:46.670Z,92.41
2017-02-24T01:00:55.652Z,91.47
2017-02-24T01:02:05.283Z,91.28
2017-02-24T01:03:14.524Z,90.33
2017-02-24T01:04:24.178Z,90.33
2017-02-24T01:05:33.276Z,90.09
2017-02-24T01:06:43.038Z,92.13
2017-02-24T01:07:52.027Z,91.23
2017-02-24T01:09:01.821Z,91.33
2017-02-24T01:10:10.829Z,91.8
2017-02-24T01:11:20.678Z,93.04
2017-02-24T01:12:29.678Z,93.89
2017-02-24T01:13:39.713Z,94.27
2017-02-24T01:14:48.696Z,94.18
2017-02-24T01:15:58.473Z,93.89
2017-02-24T01:17:07.547Z,95.03
2017-02-24T01:18:17.422Z,94.84
2017-02-24T01:19:26.428Z,95.89
2017-02-24T01:20:36.184Z,95.56
2017-02-24T01:21:45.182Z,95.51
2017-02-24T01:22:56.284Z,93.6
2017-02-24T01:24:05.354Z,93.27
2017-02-24T01:25:15.273Z,91.61
2017-02-24T01:26:24.270Z,88.85
2017-02-24T01:27:34.187Z,91.13
2017-02-24T01:28:43.162Z,91.13
2017-02-24T01:29:53.183Z,91.33
2017-02-24T01:31:02.274Z,90.75
2017-02-24T01:32:12.255Z,91.99
2017-02-24T01:33:21.361Z,90.37
2017-02-24T01:34:30.976Z,91.99
2017-02-24T01:35:39.957Z,91.99
2017-02-24T01:36:50.301Z,93.32
2017-02-24T01:38:00.671Z,92.46
2017-02-24T01:39:09.966Z,92.75
2017-02-24T01:40:20.435Z,92.75
2017-02-24T01:41:29.419Z,91.13
2017-02-24T01:42:39.738Z,92.85
2017-02-24T01:43:49.738Z,92.75
2017-02-24T01:45:00.095Z,93.32
2017-02-24T01:46:09.260Z,91.23
2017-02-24T01:47:20.461Z,88.85
2017-02-24T01:48:30.352Z,88.85
2017-02-24T01:49:39.480Z,91.23
2017-02-24T01:50:48.918Z,92.46
2017-02-24T01:51:58.171Z,92.66
2017-02-24T01:53:07.204Z,93.13
2017-02-24T01:54:16.767Z,91.42
2017-02-24T01:55:26.637Z,92.66
2017-02-24T01:56:35.703Z,89.61
2017-02-24T01:57:45.505Z,89.14
2017-02-24T01:58:57.303Z,91.61
2017-02-24T02:00:07.924Z,93.51
2017-02-24T02:01:16.938Z,93.79
2017-02-24T02:02:27.016Z,92.94
2017-02-24T02:03:36.148Z,92.56
2017-02-24T02:04:46.354Z,94.08
2017-02-24T02:05:55.337Z,94.23
2017-02-24T02:07:05.373Z,95.36
2017-02-24T02:08:15.021Z,95.94
2017-02-24T02:09:24.862Z,95.94
2017-02-24T02:10:34.441Z,96.31
2017-02-24T02:11:43.513Z,96.31
2017-02-24T02:12:52.503Z,96.41
2017-02-24T02:14:01.519Z,97.27
2017-02-24T02:15:10.543Z,97.45
2017-02-24T02:16:19.770Z,97.17
2017-02-24T02:17:28.749Z,96.98
2017-02-24T02:18:37.728Z,96.41
2017-02-24T02:19:46.707Z,95.84
2017-02-24T02:20:55.685Z,96.22
2017-02-24T02:22:04.956Z,95.84
2017-02-24T02:23:14.028Z,95.84
2017-02-24T02:24:23.003Z,96.22
2017-02-24T02:25:32.080Z,97.64
2017-02-24T02:26:41.075Z,97.17
2017-02-24T02:27:50.351Z,96.98
2017-02-24T02:28:59.334Z,98.02
2017-02-24T02:30:08.332Z,97.92
2017-02-24T02:31:17.335Z,97.64
2017-02-24T02:32:26.323Z,96.79
2017-02-24T02:33:35.606Z,97.55
2017-02-24T02:34:44.610Z,97.92
2017-02-24T02:35:53.580Z,98.5
2017-02-24T02:37:02.557Z,97.64
2017-02-24T02:38:11.540Z,97.55
2017-02-24T02:39:20.825Z,97.74
2017-02-24T02:40:29.807Z,97.83
2017-02-24T02:41:38.811Z,97.07
2017-02-24T02:42:47.798Z,97.07
2017-02-24T02:43:56.771Z,96.12
2017-02-24T02:45:06.074Z,96.31
2017-02-24T02:46:15.058Z,95.65
2017-02-24T02:47:24.037Z,95.94
2017-02-24T02:48:33.041Z,97.17
2017-02-24T02:49:42.038Z,96.98
2017-02-24T02:50:51.339Z,95.75
2017-02-24T02:52:00.333Z,96.88
2017-02-24T02:53:09.326Z,97.07
2017-02-24T02:54:18.300Z,97.83
2017-02-24T02:55:27.281Z,97.07
2017-02-24T02:56:36.651Z,95.79
2017-02-24T02:57:45.637Z,95.75
2017-02-24T02:58:54.718Z,95.84
2017-02-24T03:00:03.692Z,95.36
2017-02-24T03:01:12.663Z,95.84
2017-02-24T03:02:21.956Z,95.65
2017-02-24T03:03:30.930Z,95.36
2017-02-24T03:04:40.332Z,95.75
2017-02-24T03:05:49.716Z,96.79
2017-02-24T03:06:58.722Z,95.84
2017-02-24T03:08:08.050Z,95.84
2017-02-24T03:09:17.023Z,96.22
2017-02-24T03:10:26.021Z,96.12
2017-02-24T03:11:35.004Z,95.6
2017-02-24T03:12:44.102Z,94.08
2017-02-24T03:13:53.392Z,93.94
2017-02-24T03:15:02.380Z,95.27
2017-02-24T03:16:11.354Z,95.75
2017-02-24T03:17:20.453Z,95.89
2017-02-24T03:18:29.528Z,95.98
2017-02-24T03:19:38.816Z,95.22
2017-02-24T03:20:47.803Z,94.84
2017-02-24T03:21:56.890Z,94.7
2017-02-24T03:23:05.870Z,95.41
2017-02-24T03:24:14.877Z,95.6
2017-02-24T03:25:24.256Z,96.84
2017-02-24T03:26:33.244Z,96.84
2017-02-24T03:27:42.633Z,95.32
2017-02-24T03:28:51.624Z,95.7
2017-02-24T03:30:01.109Z,95.6
2017-02-24T03:31:10.482Z,95.98
2017-02-24T03:32:19.550Z,96.08
2017-02-24T03:33:28.648Z,96.36
2017-02-24T03:34:37.632Z,93.51
2017-02-24T03:35:46.645Z,94.08
2017-02-24T03:36:55.920Z,94.56
2017-02-24T03:38:04.934Z,95.98
2017-02-24T03:39:13.926Z,96.17
2017-02-24T03:40:22.904Z,95.41
2017-02-24T03:41:31.905Z,94.74
2017-02-24T03:42:41.135Z,93.41
2017-02-24T03:43:50.548Z,94.18
2017-02-24T03:44:59.546Z,94.93
2017-02-24T03:46:08.541Z,93.04
2017-02-24T03:47:17.531Z,92.42
2017-02-24T03:48:27.020Z,92.99
2017-02-24T03:49:36.007Z,92.42
2017-02-24T03:50:45.077Z,93.27
2017-02-24T03:51:54.065Z,94.89
2017-02-24T03:53:03.104Z,94.98
2017-02-24T03:54:12.332Z,95.17
2017-02-24T03:55:21.315Z,95.84
2017-02-24T03:56:30.292Z,94.84
2017-02-24T03:57:39.277Z,93.27
2017-02-24T03:58:48.260Z,93.18
2017-02-24T03:59:57.547Z,93.46
2017-02-24T04:01:06.525Z,94.7
2017-02-24T04:02:15.528Z,95.55
2017-02-24T04:03:24.506Z,95.36
2017-02-24T04:04:33.500Z,94.7
2017-02-24T04:05:42.751Z,94.51
2017-02-24T04:06:51.729Z,94.89
2017-02-24T04:08:00.730Z,93.6
2017-02-24T04:09:09.714Z,94.03
2017-02-24T04:10:18.775Z,93.08
2017-02-24T04:11:28.060Z,94.13
2017-02-24T04:12:37.053Z,93.37
2017-02-24T04:13:46.152Z,93.56
2017-02-24T04:14:55.224Z,93.94
2017-02-24T04:16:04.305Z,91.47
2017-02-24T04:17:14.086Z,91.47
2017-02-24T04:18:23.074Z,92.23
2017-02-24T04:19:32.145Z,92.51
2017-02-24T04:20:41.125Z,92.51
2017-02-24T04:21:50.106Z,92.8
2017-02-24T04:22:59.341Z,92.61
2017-02-24T04:24:08.316Z,92.23
2017-02-24T04:25:17.300Z,92.8
2017-02-24T04:26:26.711Z,91.47
2017-02-24T04:27:35.693Z,90.9
2017-02-24T04:28:45.095Z,91.66
2017-02-24T04:29:54.070Z,92.71
2017-02-24T04:31:03.055Z,91.75
2017-02-24T04:32:12.048Z,92.04
2017-02-24T04:33:21.024Z,92.8
2017-02-24T04:34:30.252Z,93.27
2017-02-24T04:35:39.237Z,91.8
2017-02-24T04:36:48.224Z,93.41
2017-02-24T04:37:57.226Z,92.99
2017-02-24T04:39:06.222Z,93.65
2017-02-24T04:40:15.473Z,94.89
2017-02-24T04:41:24.454Z,95.27
2017-02-24T04:42:33.456Z,95.17
2017-02-24T04:43:42.857Z,95.84
2017-02-24T04:44:51.878Z,96.22
2017-02-24T04:46:01.165Z,97.07
2017-02-24T04:47:10.159Z,96.6
2017-02-24T04:48:19.159Z,96.88
2017-02-24T04:49:28.334Z,96.03
2017-02-24T04:50:37.328Z,96.22
2017-02-24T04:51:46.708Z,95.89
2017-02-24T04:52:55.688Z,96.26
2017-02-24T04:54:05.102Z,96.08
2017-02-24T04:55:14.484Z,95.7
2017-02-24T04:56:23.473Z,95.7
2017-02-24T04:57:32.705Z,95.7
2017-02-24T04:58:41.804Z,94.93
2017-02-24T04:59:57.867Z,95.65
2017-02-24T05:01:06.886Z,95.65
2017-02-24T05:02:15.877Z,95.93
2017-02-24T05:03:25.200Z,96.03
2017-02-24T05:04:34.268Z,96.93
2017-02-24T05:05:43.241Z,96.88
2017-02-24T05:06:52.243Z,97.07
2017-02-24T05:08:01.225Z,96.78
2017-02-24T05:09:10.515Z,96.26
2017-02-24T05:10:19.495Z,95.93
2017-02-24T05:11:28.486Z,96.31
2017-02-24T05:12:37.481Z,95.74
2017-02-24T05:13:46.474Z,95.46
2017-02-24T05:14:55.764Z,96.78
2017-02-24T05:16:04.749Z,95.74
2017-02-24T05:17:13.821Z,96.78
2017-02-24T05:18:23.220Z,96.41
2017-02-24T05:19:32.205Z,97.36
2017-02-24T05:20:41.427Z,96.78
2017-02-24T05:21:50.520Z,96.78
2017-02-24T05:22:59.502Z,96.78
2017-02-24T05:24:08.903Z,97.17
2017-02-24T05:25:17.891Z,96.69
2017-02-24T05:26:27.159Z,96.5
2017-02-24T05:27:36.233Z,96.73
2017-02-24T05:28:45.213Z,97.12
2017-02-24T05:29:54.277Z,98.35
2017-02-24T05:31:03.255Z,99.11
2017-02-24T05:32:12.488Z,98.44
2017-02-24T05:33:21.473Z,98.07
2017-02-24T05:34:30.479Z,98.73
2017-02-24T05:35:39.466Z,98.73
2017-02-24T05:36:48.460Z,98.54
2017-02-24T05:37:57.845Z,98.63
2017-02-24T05:39:06.857Z,98.92
2017-02-24T05:40:15.850Z,98.63
2017-02-24T05:41:25.232Z,98.73
2017-02-24T05:42:34.223Z,99.2
2017-02-24T05:43:43.456Z,98.82
2017-02-24T05:44:52.528Z,98.92
2017-02-24T05:46:01.510Z,99.39
2017-02-24T05:47:10.509Z,98.92
2017-02-24T05:48:19.493Z,99.11
2017-02-24T05:49:28.782Z,98.44
2017-02-24T05:50:37.780Z,98.63
2017-02-24T05:51:46.778Z,98.73
2017-02-24T05:52:55.777Z,99.01
2017-02-24T05:54:04.824Z,99.11
2017-02-24T05:55:14.055Z,99.58
2017-02-24T05:56:23.047Z,99.01
2017-02-24T05:57:32.027Z,99.2
2017-02-24T05:58:41.013Z,99.01
2017-02-24T05:59:50.012Z,99.2
2017-02-24T06:00:59.243Z,99.2
2017-02-24T06:02:08.227Z,99.11
2017-02-24T06:03:17.237Z,99.49
2017-02-24T06:04:26.222Z,99.3
2017-02-24T06:05:35.307Z,99.3
2017-02-24T06:06:44.539Z,98.44
2017-02-24T06:07:53.510Z,98.54
2017-02-24T06:09:02.485Z,98.63
2017-02-24T06:10:11.498Z,98.54
2017-02-24T06:11:20.486Z,97.69
2017-02-24T06:12:29.793Z,97.59
2017-02-24T06:13:38.772Z,97.88
2017-02-24T06:14:47.742Z,97.4
2017-02-24T06:15:57.118Z,98.07
2017-02-24T06:17:06.123Z,98.49
2017-02-24T06:18:15.373Z,98.44
2017-02-24T06:19:24.458Z,98.73
2017-02-24T06:20:33.443Z,98.54
2017-02-24T06:21:42.829Z,98.92
2017-02-24T06:22:51.807Z,98.25
2017-02-24T06:24:01.029Z,97.31
2017-02-24T06:25:10.018Z,98.02
2017-02-24T06:26:19.001Z,99.25
2017-02-24T06:27:27.976Z,98.82
2017-02-24T06:28:36.954Z,98.49
2017-02-24T06:29:46.256Z,99.58
2017-02-24T06:30:55.245Z,99.58
2017-02-24T06:32:04.230Z,98.54
2017-02-24T06:33:13.633Z,98.16
2017-02-24T06:34:22.769Z,97.69
2017-02-24T06:35:31.999Z,97.21
2017-02-24T06:36:41.013Z,97.69
2017-02-24T06:37:49.984Z,97.88
2017-02-24T06:38:58.971Z,98.07
2017-02-24T06:40:07.959Z,98.16
2017-02-24T06:41:17.288Z,98.35
2017-02-24T06:42:26.279Z,97.5
2017-02-24T06:43:35.271Z,96.92
2017-02-24T06:44:44.273Z,97.02
2017-02-24T06:45:53.279Z,96.45
2017-02-24T06:47:02.506Z,97.02
2017-02-24T06:48:11.486Z,95.79
2017-02-24T06:49:20.481Z,95.69
2017-02-24T06:50:29.889Z,95.69
2017-02-24T06:51:38.868Z,95.6
2017-02-24T06:52:48.099Z,96.26
2017-02-24T06:53:57.099Z,96.64
2017-02-24T06:55:06.100Z,97.31
2017-02-24T06:56:15.089Z,97.88
2017-02-24T06:57:24.066Z,96.83
2017-02-24T06:58:33.321Z,95.79
2017-02-24T06:59:42.320Z,95.98
2017-02-24T07:00:51.307Z,96.92
2017-02-24T07:02:00.321Z,97.12
2017-02-24T07:03:09.306Z,97.4
2017-02-24T07:04:19.000Z,97.02
2017-02-24T07:05:27.984Z,97.5
2017-02-24T07:06:36.967Z,97.69
2017-02-24T07:07:45.956Z,97.31
2017-02-24T07:08:54.935Z,96.92
2017-02-24T07:10:04.531Z,96.55
2017-02-24T07:11:13.605Z,97.59
2017-02-24T07:12:22.590Z,97.5
2017-02-24T07:13:31.577Z,97.88
2017-02-24T07:14:40.564Z,97.97
2017-02-24T07:15:50.223Z,97.69
2017-02-24T07:16:59.703Z,97.31
2017-02-24T07:18:08.686Z,97.31
2017-02-24T07:19:17.692Z,97.4
2017-02-24T07:20:26.673Z,97.5
2017-02-24T07:21:35.943Z,97.59
2017-02-24T07:22:44.928Z,96.92
2017-02-24T07:23:53.907Z,97.59
2017-02-24T07:25:03.281Z,97.31
2017-02-24T07:26:12.911Z,96.92
2017-02-24T07:27:22.756Z,97.69
2017-02-24T07:28:31.742Z,97.4
2017-02-24T07:29:40.734Z,97.02
2017-02-24T07:30:49.713Z,96.45
2017-02-24T07:31:58.694Z,97.02
2017-02-24T07:33:09.045Z,96.73
2017-02-24T07:34:18.713Z,96.17
2017-02-24T07:35:28.267Z,95.41
2017-02-24T07:36:37.238Z,95.88
2017-02-24T07:37:46.859Z,95.88
2017-02-24T07:38:56.375Z,95.6
2017-02-24T07:40:05.688Z,95.6
2017-02-24T07:41:14.675Z,96.26
2017-02-24T07:42:23.645Z,96.45
2017-02-24T07:43:32.629Z,96.64
2017-02-24T07:44:41.944Z,97.02
2017-02-24T07:45:52.179Z,95.88
2017-02-24T07:47:01.158Z,95.69
2017-02-24T07:48:10.895Z,95.6
2017-02-24T07:49:20.270Z,95.5
2017-02-24T07:50:29.552Z,95.79
2017-02-24T07:51:39.174Z,95.98
2017-02-24T07:52:48.413Z,95.69
2017-02-24T07:53:57.419Z,95.98
2017-02-24T07:55:06.487Z,96.45
2017-02-24T07:56:15.738Z,96.92
2017-02-24T07:57:24.799Z,97.45
2017-02-24T07:58:33.787Z,97.55
2017-02-24T07:59:43.038Z,96.88
2017-02-24T08:00:52.400Z,96.12
2017-02-24T08:02:02.006Z,96.03
2017-02-24T08:03:11.763Z,95.65
2017-02-24T08:04:21.023Z,95.46
2017-02-24T08:05:30.321Z,95.65
2017-02-24T08:06:39.631Z,95.74
2017-02-24T08:07:48.858Z,95.46
2017-02-24T08:08:58.241Z,93.27
2017-02-24T08:10:07.228Z,92.94
2017-02-24T08:11:16.211Z,93.89
2017-02-24T08:12:25.565Z,94.08
2017-02-24T08:13:34.807Z,94.74
2017-02-24T08:14:43.793Z,95.69
2017-02-24T08:15:53.716Z,96.17
2017-02-24T08:17:02.700Z,96.45
2017-02-24T08:18:11.678Z,96.64
2017-02-24T08:19:20.912Z,97.5
2017-02-24T08:20:30.400Z,97.78
2017-02-24T08:21:39.425Z,97.12
2017-02-24T08:22:48.497Z,96.17
2017-02-24T08:23:57.479Z,96.64
2017-02-24T08:25:06.720Z,96.36
2017-02-24T08:26:16.466Z,97.5
2017-02-24T08:27:25.446Z,97.78
2017-02-24T08:28:34.584Z,96.73
2017-02-24T08:29:43.586Z,96.55
2017-02-24T08:30:52.813Z,97.69
2017-02-24T08:32:01.998Z,97.4
2017-02-24T08:33:10.976Z,96.92
2017-02-24T08:34:20.054Z,96.55
2017-02-24T08:35:29.029Z,96.92
2017-02-24T08:36:38.355Z,97.02
2017-02-24T08:37:47.651Z,95.88
2017-02-24T08:38:56.629Z,96.45
2017-02-24T08:40:05.642Z,96.17
2017-02-24T08:41:14.636Z,95.69
2017-02-24T08:42:23.878Z,95.41
2017-02-24T08:43:32.877Z,95.69
2017-02-24T08:44:42.345Z,95.69
2017-02-24T08:45:51.407Z,96.26
2017-02-24T08:47:00.470Z,96.36
2017-02-24T08:48:10.134Z,96.08
2017-02-24T08:49:19.127Z,96.92
2017-02-24T08:50:28.201Z,96.92
2017-02-24T08:51:37.192Z,97.5
2017-02-24T08:52:46.176Z,96.83
2017-02-24T08:53:55.463Z,96.64
2017-02-24T08:55:04.460Z,95.98
2017-02-24T08:56:13.864Z,95.69
2017-02-24T08:57:22.857Z,95.69
2017-02-24T08:58:31.838Z,96.26
2017-02-24T08:59:41.218Z,95.6
2017-02-24T09:00:50.464Z,95.79
2017-02-24T09:01:59.541Z,95.6
2017-02-24T09:03:08.673Z,95.41
2017-02-24T09:04:17.656Z,95.69
2017-02-24T09:05:26.892Z,95.69
2017-02-24T09:06:35.879Z,95.69
2017-02-24T09:07:44.948Z,95.79
2017-02-24T09:08:54.206Z,95.41
2017-02-24T09:10:03.192Z,95.22
2017-02-24T09:11:12.427Z,95.31
2017-02-24T09:12:21.399Z,96.17
2017-02-24T09:13:30.373Z,96.17
2017-02-24T09:14:39.399Z,95.69
2017-02-24T09:15:48.477Z,95.98
2017-02-24T09:16:57.739Z,96.08
2017-02-24T09:18:06.752Z,95.79
2017-02-24T09:19:15.923Z,95.98
2017-02-24T09:20:25.128Z,96.08
2017-02-24T09:21:34.139Z,96.08
2017-02-24T09:22:43.392Z,95.98
2017-02-24T09:23:52.410Z,96.26
2017-02-24T09:25:01.445Z,96.55
2017-02-24T09:26:10.440Z,96.45
2017-02-24T09:27:19.424Z,96.64
2017-02-24T09:28:28.743Z,96.92
2017-02-24T09:29:37.730Z,97.59
2017-02-24T09:30:46.704Z,97.31
2017-02-24T09:31:55.709Z,97.59
2017-02-24T09:33:04.697Z,97.31
2017-02-24T09:34:13.923Z,97.5
2017-02-24T09:35:22.917Z,96.64
2017-02-24T09:36:31.913Z,96.73
2017-02-24T09:37:40.891Z,96.92
2017-02-24T09:38:50.428Z,96.92
2017-02-24T09:39:59.667Z,97.5
2017-02-24T09:41:08.662Z,97.31
2017-02-24T09:42:17.674Z,96.64
2017-02-24T09:43:26.743Z,96.17
2017-02-24T09:44:35.727Z,97.02
2017-02-24T09:45:45.038Z,97.31
2017-02-24T09:46:54.041Z,97.69
2017-02-24T09:48:03.843Z,97.69
2017-02-24T09:49:14.055Z,96.83
2017-02-24T09:50:23.038Z,95.12
2017-02-24T09:51:32.312Z,95.22
2017-02-24T09:52:41.748Z,94.74
2017-02-24T09:53:50.726Z,94.74
2017-02-24T09:54:59.715Z,95.69
2017-02-24T09:56:08.790Z,93.89
2017-02-24T09:57:18.070Z,92.85
2017-02-24T09:58:27.046Z,93.99
2017-02-24T09:59:36.042Z,94.93
2017-02-24T10:00:45.019Z,93.99
2017-02-24T10:01:53.997Z,95.22
2017-02-24T10:03:03.312Z,93.89
2017-02-24T10:04:12.320Z,94.37
2017-02-24T10:05:21.309Z,94.37
2017-02-24T10:06:34.368Z,93.13
2017-02-24T10:07:47.161Z,93.99
2017-02-24T10:08:56.397Z,94.46
2017-02-24T10:10:05.380Z,95.41
2017-02-24T10:11:14.417Z,95.69
2017-02-24T10:12:23.395Z,96.17
2017-02-24T10:13:32.462Z,96.69
2017-02-24T10:14:41.733Z,95.93
2017-02-24T10:15:50.734Z,95.27
2017-02-24T10:16:59.807Z,95.27
2017-02-24T10:18:08.819Z,94.6
2017-02-24T10:19:17.799Z,93.56
2017-02-24T10:20:27.040Z,93.84
2017-02-24T10:21:36.055Z,94.23
2017-02-24T10:22:45.037Z,93.94
2017-02-24T10:23:54.028Z,92.61
2017-02-24T10:25:03.012Z,93.37
2017-02-24T10:26:12.245Z,93.27
2017-02-24T10:27:21.339Z,94.6
2017-02-24T10:28:30.323Z,93.75
2017-02-24T10:29:39.308Z,94.7
2017-02-24T10:30:48.303Z,94.98
2017-02-24T10:31:57.541Z,95.17
2017-02-24T10:33:06.531Z,95.17
2017-02-24T10:34:15.511Z,95.17
2017-02-24T10:35:24.498Z,95.84
2017-02-24T10:36:33.593Z,95.65
2017-02-24T10:37:42.827Z,96.41
2017-02-24T10:38:51.820Z,96.22
2017-02-24T10:40:00.897Z,95.74
2017-02-24T10:41:10.286Z,94.7
2017-02-24T10:42:19.267Z,95.27
2017-02-24T10:43:28.602Z,95.36
2017-02-24T10:44:37.657Z,95.17
2017-02-24T10:45:46.729Z,93.08
2017-02-24T10:46:55.723Z,92.99
2017-02-24T10:48:05.215Z,93.23
2017-02-24T10:49:15.084Z,94.08
2017-02-24T10:50:24.065Z,94.56
2017-02-24T10:51:33.042Z,94.84
2017-02-24T10:52:42.018Z,94.84
2017-02-24T10:53:51.020Z,94.84
2017-02-24T10:55:00.272Z,95.69
2017-02-24T10:56:09.270Z,96.17
2017-02-24T10:57:18.277Z,95.79
2017-02-24T10:58:27.260Z,96.08
2017-02-24T10:59:36.441Z,95.79
2017-02-24T11:00:45.684Z,95.6
2017-02-24T11:01:54.655Z,95.69
2017-02-24T11:03:03.878Z,95.98
2017-02-24T11:04:13.173Z,95.79
2017-02-24T11:05:22.165Z,95.22
2017-02-24T11:06:31.443Z,95.69
2017-02-24T11:07:40.533Z,95.79
2017-02-24T11:08:49.951Z,95.12
2017-02-24T11:09:58.938Z,94.65
2017-02-24T11:11:07.936Z,95.03
2017-02-24T11:12:17.264Z,95.41
2017-02-24T11:13:26.260Z,95.79
2017-02-24T11:14:35.264Z,95.6
2017-02-24T11:15:44.240Z,95.6
2017-02-24T11:16:53.225Z,92.47
2017-02-24T11:18:02.491Z,92.28
2017-02-24T11:19:11.488Z,94.18
2017-02-24T11:20:20.893Z,95.03
2017-02-24T11:21:29.959Z,94.56
2017-02-24T11:22:38.949Z,94.84
2017-02-24T11:23:48.225Z,93.7
2017-02-24T11:24:57.210Z,94.08
2017-02-24T11:26:06.217Z,92.18
2017-02-24T11:27:15.214Z,92.66
2017-02-24T11:28:24.202Z,92.76
2017-02-24T11:29:33.492Z,92.76
2017-02-24T11:30:43.485Z,92.38
2017-02-24T11:31:52.550Z,93.23
2017-02-24T11:33:01.533Z,93.61
2017-02-24T11:34:10.507Z,93.65
2017-02-24T11:35:19.792Z,91.85
2017-02-24T11:36:28.801Z,92.61
2017-02-24T11:37:37.784Z,92.23
2017-02-24T11:38:46.868Z,91.85
2017-02-24T11:39:56.271Z,92.04
2017-02-24T11:41:05.914Z,91.47
2017-02-24T11:42:14.907Z,91.09
2017-02-24T11:43:23.880Z,90.33
2017-02-24T11:44:32.852Z,89.39
2017-02-24T11:45:41.854Z,87.3
2017-02-24T11:46:51.138Z,87.2
2017-02-24T11:48:00.541Z,86.44
2017-02-24T11:49:09.646Z,86.25
2017-02-24T11:50:18.641Z,87.01
2017-02-24T11:51:27.830Z,89.95
2017-02-24T11:52:37.074Z,87.87
2017-02-24T11:53:46.056Z,86.35
2017-02-24T11:54:55.033Z,88.81
2017-02-24T11:56:04.418Z,88.53
2017-02-24T11:57:13.486Z,86.35
2017-02-24T11:58:22.762Z,83.59
2017-02-24T11:59:31.739Z,84.55
2017-02-24T12:00:40.724Z,87.11
2017-02-24T12:01:49.716Z,89.29
2017-02-24T12:02:58.696Z,91
2017-02-24T12:04:08.005Z,89.39
2017-02-24T12:05:16.976Z,87.68
2017-02-24T12:06:25.966Z,86.44
2017-02-24T12:07:34.977Z,87.11
2017-02-24T12:08:43.950Z,87.87
2017-02-24T12:09:53.187Z,88.06
2017-02-24T12:11:02.185Z,87.3
2017-02-24T12:12:11.258Z,87.11
2017-02-24T12:13:20.247Z,87.87
2017-02-24T12:14:29.796Z,89.39
2017-02-24T12:15:39.848Z,89.1
2017-02-24T12:16:48.852Z,88.62
2017-02-24T12:17:57.841Z,89.1
2017-02-24T12:19:07.418Z,90.14
2017-02-24T12:20:17.007Z,91.24
2017-02-24T12:21:26.374Z,91.14
2017-02-24T12:22:35.530Z,91.14
2017-02-24T12:23:44.520Z,89.14
2017-02-24T12:24:53.512Z,88.67
2017-02-24T12:26:02.506Z,89.33
2017-02-24T12:27:11.777Z,87.3
2017-02-24T12:28:21.197Z,89.62
2017-02-24T12:29:30.182Z,90.71
2017-02-24T12:30:39.157Z,90.38
2017-02-24T12:31:48.144Z,89.14
2017-02-24T12:32:57.448Z,87.43
2017-02-24T12:34:06.526Z,88.01
2017-02-24T12:35:15.525Z,87.24
2017-02-24T12:36:24.499Z,84.87
2017-02-24T12:37:33.481Z,86.77
2017-02-24T12:38:42.804Z,87.05
2017-02-24T12:39:51.913Z,86.87
2017-02-24T12:41:01.033Z,88.62
2017-02-24T12:42:10.027Z,89.05
2017-02-24T12:43:19.418Z,87.43
2017-02-24T12:44:28.669Z,87.34
2017-02-24T12:45:37.756Z,89.33
2017-02-24T12:46:46.744Z,90.38
2017-02-24T12:47:55.747Z,87.34
2017-02-24T12:49:04.732Z,86.68
2017-02-24T12:50:13.959Z,86.11
2017-02-24T12:51:23.040Z,86.58
2017-02-24T12:52:32.130Z,88.57
2017-02-24T12:53:41.107Z,87.82
2017-02-24T12:54:50.092Z,88.95
2017-02-24T12:55:59.321Z,88.39
2017-02-24T12:57:08.321Z,87.91
2017-02-24T12:58:17.399Z,89.14
2017-02-24T12:59:26.399Z,89.43
2017-02-24T13:00:35.403Z,85.16
2017-02-24T13:01:44.797Z,81.26
2017-02-24T13:02:53.770Z,84.01
2017-02-24T13:04:02.784Z,85.25
2017-02-24T13:05:11.758Z,86.77
2017-02-24T13:06:20.739Z,83.64
2017-02-24T13:07:29.994Z,84.59
2017-02-24T13:08:38.972Z,83.07
2017-02-24T13:09:48.082Z,82.31
2017-02-24T13:10:58.123Z,84.87
2017-02-24T13:12:07.375Z,85.72
2017-02-24T13:13:17.207Z,85.72
2017-02-24T13:14:26.199Z,84.16
2017-02-24T13:15:35.287Z,84.06
2017-02-24T13:16:44.277Z,84.16
2017-02-24T13:17:53.258Z,82.82
2017-02-24T13:19:02.548Z,81.3
2017-02-24T13:20:11.529Z,80.55
2017-02-24T13:21:20.744Z,77.12
2017-02-24T13:22:29.847Z,76.37
2017-02-24T13:23:38.827Z,76.56
2017-02-24T13:24:48.698Z,77.18
2017-02-24T13:25:58.187Z,79.27
2017-02-24T13:27:07.202Z,76.8
2017-02-24T13:28:16.193Z,80.6
2017-02-24T13:29:25.185Z,79.74
2017-02-24T13:30:34.489Z,79.84
2017-02-24T13:31:44.348Z,81.36
2017-02-24T13:32:54.270Z,78.99
2017-02-24T13:34:03.510Z,77.47
2017-02-24T13:35:13.178Z,76.71
2017-02-24T13:36:23.020Z,77.56
2017-02-24T13:37:32.019Z,79.94
2017-02-24T13:38:41.021Z,80.6
2017-02-24T13:39:49.999Z,78.51
2017-02-24T13:40:58.989Z,77.66
2017-02-24T13:42:08.254Z,79.08
2017-02-24T13:43:17.331Z,80.88
2017-02-24T13:44:26.338Z,81.17
2017-02-24T13:45:35.331Z,81.59
2017-02-24T13:46:44.305Z,80.74
2017-02-24T13:47:53.532Z,82.82
2017-02-24T13:49:02.932Z,84.72
2017-02-24T13:50:12.011Z,81.49
2017-02-24T13:51:21.008Z,83.01
2017-02-24T13:52:30.017Z,83.3
2017-02-24T13:53:39.244Z,83.49
2017-02-24T13:54:48.328Z,79.88
2017-02-24T13:55:57.319Z,77.79
2017-02-24T13:57:06.307Z,73.38
2017-02-24T13:58:15.290Z,73.96
2017-02-24T13:59:24.525Z,74.71
2017-02-24T14:00:33.508Z,75
2017-02-24T14:01:42.498Z,76.23
2017-02-24T14:02:51.492Z,74.71
2017-02-24T14:04:00.895Z,75.57
2017-02-24T14:05:10.172Z,77.84
2017-02-24T14:06:19.152Z,81.36
2017-02-24T14:07:28.122Z,83.92
2017-02-24T14:08:37.104Z,82.4
2017-02-24T14:09:46.202Z,81.02
2017-02-24T14:10:55.470Z,83.3
2017-02-24T14:12:04.471Z,85.01
2017-02-24T14:13:13.444Z,86.15
2017-02-24T14:14:22.435Z,84.06
2017-02-24T14:15:31.418Z,80.93
2017-02-24T14:16:40.666Z,78.36
2017-02-24T14:17:49.661Z,79.12
2017-02-24T14:18:58.728Z,80.16
2017-02-24T14:20:07.727Z,80.64
2017-02-24T14:21:16.725Z,76.65
2017-02-24T14:22:26.005Z,78.08
2017-02-24T14:23:36.100Z,78.45
2017-02-24T14:24:46.484Z,77.79
2017-02-24T14:25:56.100Z,76.84
2017-02-24T14:27:05.096Z,78.45
2017-02-24T14:28:14.332Z,76.37
2017-02-24T14:29:23.309Z,78.27
2017-02-24T14:30:32.297Z,74.75
2017-02-24T14:31:41.644Z,73.14
2017-02-24T14:32:51.364Z,76.56
2017-02-24T14:34:01.256Z,74.18
2017-02-24T14:35:10.244Z,74.18
2017-02-24T14:36:19.789Z,76.52
2017-02-24T14:37:28.888Z,76.65
2017-02-24T14:38:38.573Z,78.55
2017-02-24T14:39:47.811Z,72.34
2017-02-24T14:40:56.802Z,70
2017-02-24T14:42:05.789Z,73.48
2017-02-24T14:43:14.799Z,73.96
2017-02-24T14:44:23.794Z,75.47
2017-02-24T14:45:33.159Z,75.09
2017-02-24T14:46:42.144Z,76.04
2017-02-24T14:47:51.123Z,77.28
2017-02-24T14:49:00.106Z,78.7
2017-02-24T14:50:09.104Z,79.88
2017-02-24T14:51:18.391Z,80.69
2017-02-24T14:52:27.479Z,81.65
2017-02-24T14:53:36.680Z,83.39
2017-02-24T14:54:46.129Z,82.78